Terminal Aerodrome Forecast
Issued by NWS

Home | Current Version | Previous Version | Text Only | Print | Product List | Glossary On
Versions: 1 2 3 4 5 6 7 8 9 10 11 12 13 14
000
FTUS41 KGYX 281403 AAA
TAFAUG
TAF AMD
KAUG 281403Z 2814/2912 18006KT 2SM -RA BR OVC003
     FM281500 26010G18KT P6SM SCT040 BKN100
     FM290000 31005KT P6SM BKN250=

USA.gov is the U.S. government's official web portal to all federal, state and local government web resources and services.